createdAt,value
2023-01-23T00:01:30.954Z,54.50
2023-01-23T00:03:59.148Z,53.80
2023-01-23T00:06:27.222Z,53.40
2023-01-23T00:08:56.736Z,56.40
2023-01-23T00:11:27.013Z,54.30
2023-01-23T00:13:54.762Z,54.40
2023-01-23T00:16:25.291Z,54.20
2023-01-23T00:18:53.822Z,54.20
2023-01-23T00:21:24.072Z,54.20
2023-01-23T00:23:54.803Z,52.30
2023-01-23T00:26:25.869Z,53.40
2023-01-23T00:28:54.210Z,54.10
2023-01-23T00:31:25.267Z,53.50
2023-01-23T00:33:58.271Z,55.40
2023-01-23T00:36:37.618Z,53.10
2023-01-23T00:39:08.762Z,55.00
2023-01-23T00:41:36.391Z,56.20
2023-01-23T00:44:05.241Z,56.10
2023-01-23T00:46:34.901Z,54.60
2023-01-23T00:49:03.594Z,54.30
2023-01-23T00:51:31.535Z,56.10
2023-01-23T00:53:59.563Z,58.50
2023-01-23T00:56:28.128Z,56.50
2023-01-23T00:58:56.024Z,55.40
2023-01-23T01:01:23.924Z,54.70
2023-01-23T01:03:51.875Z,57.00
2023-01-23T01:06:19.579Z,55.70
2023-01-23T01:08:47.815Z,52.80
2023-01-23T01:11:15.888Z,56.90
2023-01-23T01:13:44.673Z,54.50
2023-01-23T01:16:13.193Z,52.10
2023-01-23T01:18:41.323Z,49.00
2023-01-23T01:21:11.625Z,55.00
2023-01-23T01:23:39.977Z,54.60
2023-01-23T01:26:08.348Z,53.70
2023-01-23T01:28:38.162Z,53.70
2023-01-23T01:31:08.423Z,52.80
2023-01-23T01:33:38.181Z,55.30
2023-01-23T01:36:13.503Z,55.60
2023-01-23T01:38:41.375Z,53.80
2023-01-23T01:41:09.451Z,50.50
2023-01-23T01:43:37.212Z,56.30
2023-01-23T01:46:20.572Z,56.10
2023-01-23T01:48:57.494Z,59.10
2023-01-23T01:51:34.065Z,51.40
2023-01-23T01:54:32.498Z,51.50
2023-01-23T01:57:24.539Z,52.00
2023-01-23T01:59:57.140Z,52.10
2023-01-23T02:02:32.479Z,50.80
2023-01-23T02:05:06.245Z,53.40
2023-01-23T02:07:36.811Z,50.80
2023-01-23T02:10:06.438Z,50.70
2023-01-23T02:12:35.416Z,53.10
2023-01-23T02:15:06.182Z,51.20
2023-01-23T02:17:35.664Z,50.30
2023-01-23T02:20:20.306Z,50.70
2023-01-23T02:23:07.137Z,50.60
2023-01-23T02:25:43.958Z,52.50
2023-01-23T02:28:15.065Z,52.00
2023-01-23T02:30:47.019Z,55.30
2023-01-23T02:33:22.198Z,53.90
2023-01-23T02:35:51.322Z,55.90
2023-01-23T02:38:23.176Z,55.80
2023-01-23T02:40:55.111Z,55.60
2023-01-23T02:43:28.421Z,51.90
2023-01-23T02:46:02.394Z,52.80
2023-01-23T02:48:30.539Z,51.40
2023-01-23T02:51:00.866Z,55.40
2023-01-23T02:53:30.614Z,52.00
2023-01-23T02:56:00.035Z,54.20
2023-01-23T02:58:46.581Z,51.20
2023-01-23T03:01:14.312Z,57.20
2023-01-23T03:03:42.498Z,56.10
2023-01-23T03:06:11.566Z,53.70
2023-01-23T03:08:48.239Z,53.30
2023-01-23T03:11:18.405Z,54.40
2023-01-23T03:13:47.205Z,56.00
2023-01-23T03:16:15.443Z,51.90
2023-01-23T03:18:53.938Z,57.50
2023-01-23T03:21:22.480Z,58.40
2023-01-23T03:23:50.785Z,52.60
2023-01-23T03:26:18.847Z,53.50
2023-01-23T03:29:07.883Z,56.70
2023-01-23T03:31:36.092Z,54.50
2023-01-23T03:34:04.302Z,53.10
2023-01-23T03:36:37.296Z,55.80
2023-01-23T03:39:25.398Z,55.80
2023-01-23T03:41:54.024Z,48.70
2023-01-23T03:44:22.377Z,50.10
2023-01-23T03:46:51.837Z,51.10
2023-01-23T03:49:20.159Z,50.40
2023-01-23T03:51:51.135Z,51.40
2023-01-23T03:54:18.954Z,48.80
2023-01-23T03:56:46.656Z,52.60
2023-01-23T03:59:29.844Z,50.10
2023-01-23T04:01:58.137Z,51.20
2023-01-23T04:04:26.236Z,51.90
2023-01-23T04:06:53.975Z,51.70
2023-01-23T04:09:27.487Z,55.20
2023-01-23T04:12:00.215Z,50.40
2023-01-23T04:14:30.531Z,53.20
2023-01-23T04:16:59.312Z,54.20
2023-01-23T04:19:27.031Z,51.60
2023-01-23T04:21:54.755Z,53.20
2023-01-23T04:24:22.530Z,51.00
2023-01-23T04:26:50.732Z,51.90
2023-01-23T04:29:18.554Z,50.50
2023-01-23T04:31:46.404Z,49.30
2023-01-23T04:34:14.494Z,50.20
2023-01-23T04:36:42.458Z,52.20
2023-01-23T04:39:10.198Z,52.40
2023-01-23T04:41:38.270Z,49.40
2023-01-23T04:44:22.006Z,48.90
2023-01-23T04:47:12.242Z,49.10
2023-01-23T04:49:40.686Z,52.30
2023-01-23T04:52:08.392Z,51.40
2023-01-23T04:54:38.678Z,53.10
2023-01-23T04:57:06.424Z,56.80
2023-01-23T04:59:34.542Z,52.80
2023-01-23T05:02:02.677Z,52.80
2023-01-23T05:04:35.351Z,51.20
2023-01-23T05:07:03.062Z,53.80
2023-01-23T05:09:31.455Z,52.10
2023-01-23T05:11:59.393Z,49.90
2023-01-23T05:14:27.463Z,49.30
2023-01-23T05:16:56.015Z,52.90
2023-01-23T05:19:31.807Z,52.90
2023-01-23T05:22:01.599Z,50.80
2023-01-23T05:24:29.389Z,51.80
2023-01-23T05:26:57.458Z,51.90
2023-01-23T05:29:26.031Z,53.70
2023-01-23T05:32:04.493Z,50.00
2023-01-23T05:34:38.055Z,48.10
2023-01-23T05:37:13.131Z,49.10
2023-01-23T05:39:41.285Z,49.30
2023-01-23T05:42:08.931Z,53.90
2023-01-23T05:45:00.799Z,49.00
2023-01-23T05:47:37.499Z,52.30
2023-01-23T05:50:08.095Z,50.20
2023-01-23T05:52:36.710Z,50.60
2023-01-23T05:55:04.910Z,50.60
2023-01-23T05:57:34.223Z,51.30
2023-01-23T06:00:25.171Z,46.30
2023-01-23T06:03:18.943Z,49.80
2023-01-23T06:06:01.734Z,51.30
2023-01-23T06:08:29.712Z,43.90
2023-01-23T06:11:01.151Z,53.90
2023-01-23T06:13:29.270Z,47.20
2023-01-23T06:15:57.405Z,47.50
2023-01-23T06:18:25.984Z,47.80
2023-01-23T06:20:59.796Z,44.60
2023-01-23T06:23:28.503Z,47.40
2023-01-23T06:26:00.966Z,48.40
2023-01-23T06:28:29.093Z,51.50
2023-01-23T06:31:01.954Z,49.90
2023-01-23T06:33:38.978Z,45.70
2023-01-23T06:36:09.341Z,49.90
2023-01-23T06:38:39.070Z,48.80
2023-01-23T06:41:09.655Z,50.80
2023-01-23T06:43:40.212Z,46.10
2023-01-23T06:46:12.155Z,50.40
2023-01-23T06:48:39.899Z,46.70
2023-01-23T06:51:07.708Z,46.00
2023-01-23T06:53:35.597Z,44.40
2023-01-23T06:56:07.546Z,47.80
2023-01-23T06:58:38.790Z,50.50
2023-01-23T07:01:11.673Z,45.00
2023-01-23T07:03:58.124Z,45.30
2023-01-23T07:06:26.289Z,48.00
2023-01-23T07:08:54.027Z,48.80
2023-01-23T07:11:21.777Z,48.40
2023-01-23T07:13:49.443Z,45.70
2023-01-23T07:16:17.239Z,48.00
2023-01-23T07:18:45.545Z,47.50
2023-01-23T07:21:13.616Z,48.30
2023-01-23T07:23:41.375Z,47.90
2023-01-23T07:26:10.213Z,48.60
2023-01-23T07:28:38.748Z,52.10
2023-01-23T07:31:06.906Z,48.90
2023-01-23T07:33:35.260Z,48.00
2023-01-23T07:36:06.932Z,52.70
2023-01-23T07:38:34.689Z,45.20
2023-01-23T07:41:02.369Z,49.90
2023-01-23T07:43:30.067Z,50.20
2023-01-23T07:46:01.595Z,49.30
2023-01-23T07:48:29.458Z,50.50
2023-01-23T07:50:57.232Z,50.30
2023-01-23T07:53:25.051Z,46.50
2023-01-23T07:55:52.672Z,51.50
2023-01-23T07:58:20.320Z,49.90
2023-01-23T08:00:48.049Z,47.80
2023-01-23T08:03:15.727Z,48.20
2023-01-23T08:05:48.615Z,44.70
2023-01-23T08:08:16.826Z,51.30
2023-01-23T08:10:44.585Z,48.90
2023-01-23T08:13:12.263Z,48.00
2023-01-23T08:15:40.139Z,47.80
2023-01-23T08:18:08.108Z,42.20
2023-01-23T08:20:35.744Z,47.50
2023-01-23T08:23:03.498Z,45.30
2023-01-23T08:25:31.675Z,48.70
2023-01-23T08:27:59.460Z,43.90
2023-01-23T08:30:27.431Z,44.10
2023-01-23T08:32:55.356Z,49.90
2023-01-23T08:35:23.315Z,47.50
2023-01-23T08:37:51.234Z,45.20
2023-01-23T08:40:19.387Z,49.00
2023-01-23T08:42:47.921Z,50.30
2023-01-23T08:45:15.850Z,79.30
2023-01-23T08:47:43.878Z,71.20
2023-01-23T08:50:12.358Z,62.90
2023-01-23T08:52:40.332Z,48.40
2023-01-23T08:55:09.181Z,47.60
2023-01-23T08:57:36.939Z,85.50
2023-01-23T09:00:05.110Z,52.50
2023-01-23T09:02:32.844Z,47.30
2023-01-23T09:05:00.965Z,50.70
2023-01-23T09:07:28.782Z,59.50
2023-01-23T09:09:56.444Z,46.20
2023-01-23T09:12:24.220Z,45.30
2023-01-23T09:14:51.902Z,45.30
2023-01-23T09:17:19.584Z,58.10
2023-01-23T09:19:47.245Z,76.40
2023-01-23T09:22:16.443Z,55.30
2023-01-23T09:24:44.239Z,58.20
2023-01-23T09:27:11.938Z,49.20
2023-01-23T09:29:39.597Z,47.00
2023-01-23T09:32:07.235Z,49.20
2023-01-23T09:34:34.896Z,48.10
2023-01-23T09:37:02.640Z,49.60
2023-01-23T09:39:30.305Z,48.00
2023-01-23T09:41:59.691Z,49.60
2023-01-23T09:44:38.440Z,50.60
2023-01-23T09:47:14.308Z,57.50
2023-01-23T09:49:47.315Z,67.20
2023-01-23T09:52:19.082Z,63.90
2023-01-23T09:54:50.261Z,48.50
2023-01-23T09:57:35.720Z,60.50
2023-01-23T10:00:11.126Z,60.00
2023-01-23T10:02:44.596Z,50.00
2023-01-23T10:05:15.666Z,77.10
2023-01-23T10:07:59.529Z,71.30
2023-01-23T10:10:56.747Z,55.20
2023-01-23T10:13:33.992Z,46.80
2023-01-23T10:16:35.398Z,48.70
2023-01-23T10:19:30.532Z,47.00
2023-01-23T10:22:02.038Z,52.50
2023-01-23T10:24:58.765Z,46.90
2023-01-23T10:27:34.023Z,54.50
2023-01-23T10:30:22.008Z,47.80
2023-01-23T10:33:02.013Z,44.50
2023-01-23T10:35:53.118Z,47.40
2023-01-23T10:38:49.933Z,42.60
2023-01-23T10:41:21.772Z,41.70
2023-01-23T10:43:52.641Z,52.40
2023-01-23T10:46:39.610Z,43.80
2023-01-23T10:49:07.406Z,43.30
2023-01-23T10:51:46.743Z,46.50
2023-01-23T10:54:30.257Z,43.70
2023-01-23T10:57:03.149Z,42.70
2023-01-23T10:59:41.410Z,41.90
2023-01-23T11:02:15.817Z,46.60
2023-01-23T11:04:46.715Z,39.40
2023-01-23T11:07:17.245Z,38.90
2023-01-23T11:10:05.371Z,39.60
2023-01-23T11:12:34.907Z,41.00
2023-01-23T11:15:29.934Z,45.00
2023-01-23T11:18:00.372Z,42.40
2023-01-23T11:20:39.891Z,45.90
2023-01-23T11:23:13.506Z,41.90
2023-01-23T11:25:42.596Z,43.80
2023-01-23T11:28:34.706Z,47.70
2023-01-23T11:31:15.865Z,43.90
2023-01-23T11:34:09.183Z,42.40
2023-01-23T11:37:14.159Z,49.20
2023-01-23T11:40:07.816Z,43.90
2023-01-23T11:42:40.260Z,43.80
2023-01-23T11:45:29.228Z,43.80
2023-01-23T11:48:10.043Z,45.60
2023-01-23T11:50:56.501Z,42.40
2023-01-23T11:53:54.931Z,42.40
2023-01-23T11:56:44.304Z,43.20
2023-01-23T11:59:37.226Z,48.70
2023-01-23T12:02:39.438Z,48.00
2023-01-23T12:05:29.777Z,47.70
2023-01-23T12:08:09.463Z,48.00
2023-01-23T12:10:55.906Z,48.30
2023-01-23T12:13:53.122Z,56.10
2023-01-23T12:16:28.173Z,48.80
2023-01-23T12:19:21.356Z,52.20
2023-01-23T12:21:58.108Z,52.50
2023-01-23T12:24:47.054Z,55.60
2023-01-23T12:27:17.433Z,54.00
2023-01-23T12:29:47.869Z,52.50
2023-01-23T12:32:33.226Z,55.50
2023-01-23T12:35:03.584Z,52.80
2023-01-23T12:38:16.187Z,55.80
2023-01-23T12:40:50.418Z,58.10
2023-01-23T12:43:40.360Z,58.30
2023-01-23T12:46:16.187Z,56.00
2023-01-23T12:48:54.447Z,55.90
2023-01-23T12:51:27.156Z,62.30
2023-01-23T12:53:57.669Z,58.00
2023-01-23T12:56:34.056Z,53.90
2023-01-23T12:59:10.501Z,56.60
2023-01-23T13:02:11.304Z,56.30
2023-01-23T13:04:47.060Z,59.20
2023-01-23T13:07:38.121Z,57.00
2023-01-23T13:10:54.385Z,55.00
2023-01-23T13:13:22.439Z,57.90
2023-01-23T13:16:11.916Z,62.00
2023-01-23T13:18:58.973Z,64.50
2023-01-23T13:21:45.460Z,69.60
2023-01-23T13:24:51.977Z,68.20
2023-01-23T13:27:39.996Z,69.10
2023-01-23T13:30:26.096Z,70.40
2023-01-23T13:32:56.460Z,68.40
2023-01-23T13:35:47.680Z,71.20
2023-01-23T13:38:21.433Z,64.00
2023-01-23T13:41:04.749Z,74.90
2023-01-23T13:43:50.573Z,70.50
2023-01-23T14:24:21.912Z,66.40
2023-01-23T14:26:52.340Z,65.80
2023-01-23T14:29:25.119Z,69.90
2023-01-23T14:31:53.649Z,70.50
2023-01-23T14:34:23.467Z,76.40
2023-01-23T14:36:53.606Z,76.10
2023-01-23T14:39:23.829Z,77.90
2023-01-23T14:41:54.345Z,76.80
2023-01-23T14:44:42.555Z,82.90
2023-01-23T14:47:16.506Z,82.20
2023-01-23T14:49:47.171Z,89.90
2023-01-23T14:52:24.769Z,93.70
2023-01-23T14:54:54.477Z,81.30
2023-01-23T14:57:24.167Z,91.70
2023-01-23T14:59:56.742Z,111.50
2023-01-23T15:02:26.330Z,81.40
2023-01-23T15:05:12.688Z,100.20
2023-01-23T15:07:59.181Z,84.30
2023-01-23T15:10:32.639Z,77.00
2023-01-23T15:13:05.045Z,79.20
2023-01-23T15:15:34.576Z,82.70
2023-01-23T15:18:05.815Z,78.60
2023-01-23T15:20:41.055Z,84.60
2023-01-23T15:23:17.804Z,82.10
2023-01-23T15:25:51.721Z,80.50
2023-01-23T15:28:37.782Z,78.50
2023-01-23T15:31:06.042Z,76.70
2023-01-23T15:33:40.227Z,74.90
2023-01-23T15:36:23.383Z,75.50
2023-01-23T15:38:51.281Z,80.30
2023-01-23T15:41:26.877Z,79.10
2023-01-23T15:44:02.041Z,77.50
2023-01-23T15:46:29.827Z,78.60
2023-01-23T15:48:57.588Z,78.30
2023-01-23T15:51:25.313Z,73.00
2023-01-23T15:53:52.962Z,74.20
2023-01-23T15:56:32.016Z,75.10
2023-01-23T15:59:02.490Z,78.10
2023-01-23T16:01:30.161Z,73.50
2023-01-23T16:04:00.905Z,74.80
2023-01-23T16:06:28.994Z,77.80
2023-01-23T16:09:05.259Z,73.00
2023-01-23T16:11:35.536Z,73.20
2023-01-23T16:14:03.642Z,67.10
2023-01-23T16:16:31.703Z,67.10
2023-01-23T16:18:59.656Z,70.20
2023-01-23T16:21:29.906Z,71.30
2023-01-23T16:23:58.643Z,73.40
2023-01-23T16:26:27.838Z,71.10
2023-01-23T16:29:12.111Z,71.70
2023-01-23T16:31:41.373Z,69.70
2023-01-23T16:34:09.268Z,73.80
2023-01-23T16:36:37.936Z,74.70
2023-01-23T16:39:06.280Z,78.80
2023-01-23T16:41:34.294Z,72.50
2023-01-23T16:44:02.039Z,69.20
2023-01-23T16:46:29.885Z,68.70
2023-01-23T16:48:57.913Z,72.30
2023-01-23T16:51:25.878Z,73.30
2023-01-23T16:53:56.320Z,65.60
2023-01-23T16:56:35.555Z,64.30
2023-01-23T16:59:05.569Z,67.60
2023-01-23T17:01:37.656Z,68.70
2023-01-23T17:04:05.799Z,71.20
2023-01-23T17:06:33.716Z,68.50
2023-01-23T17:09:01.735Z,69.90
2023-01-23T17:11:35.533Z,68.50
2023-01-23T17:14:09.678Z,69.40
2023-01-23T17:16:37.950Z,70.10
2023-01-23T17:19:15.591Z,70.70
2023-01-23T17:21:43.564Z,69.20
2023-01-23T17:24:16.595Z,74.50
2023-01-23T17:26:44.683Z,73.60
2023-01-23T17:29:12.783Z,67.80
2023-01-23T17:31:41.140Z,68.80
2023-01-23T17:34:19.328Z,69.70
2023-01-23T17:36:47.506Z,70.00
2023-01-23T17:39:15.727Z,72.20
2023-01-23T17:41:43.647Z,71.40
2023-01-23T17:44:11.329Z,71.20
2023-01-23T17:46:39.700Z,68.10
2023-01-23T17:49:28.850Z,68.80
2023-01-23T17:51:58.546Z,67.80
2023-01-23T17:54:29.557Z,64.60
2023-01-23T17:56:57.186Z,74.40
2023-01-23T17:59:24.862Z,71.00
2023-01-23T18:01:52.689Z,68.20
2023-01-23T18:04:21.996Z,70.00
2023-01-23T18:06:50.484Z,71.40
2023-01-23T18:09:19.030Z,73.30
2023-01-23T18:11:52.161Z,73.50
2023-01-23T18:14:43.895Z,71.40
2023-01-23T18:17:16.311Z,69.80
2023-01-23T18:19:44.234Z,67.00
2023-01-23T18:22:12.429Z,67.90
2023-01-23T18:24:40.307Z,67.00
2023-01-23T18:27:24.502Z,65.80
2023-01-23T18:30:30.878Z,69.40
2023-01-23T18:33:14.037Z,65.80
2023-01-23T18:35:57.059Z,63.90
2023-01-23T18:39:19.572Z,67.20
2023-01-23T18:42:20.573Z,66.30
2023-01-23T18:44:55.913Z,65.70
2023-01-23T18:47:25.444Z,68.40
2023-01-23T18:49:53.527Z,68.60
2023-01-23T18:52:26.991Z,68.00
2023-01-23T18:55:32.657Z,68.40
2023-01-23T18:58:17.466Z,65.00
2023-01-23T19:01:26.857Z,68.30
2023-01-23T19:03:55.258Z,67.40
2023-01-23T19:06:25.063Z,67.80
2023-01-23T19:08:54.236Z,72.20
2023-01-23T19:11:27.314Z,75.30
2023-01-23T19:14:01.472Z,75.40
2023-01-23T19:16:31.421Z,71.80
2023-01-23T19:19:16.886Z,69.40
2023-01-23T19:21:46.977Z,66.60
2023-01-23T19:24:18.703Z,74.50
2023-01-23T19:26:46.891Z,73.00
2023-01-23T19:29:22.009Z,71.40
2023-01-23T19:32:06.873Z,75.20
2023-01-23T19:34:35.221Z,75.30
2023-01-23T19:37:04.026Z,76.90
2023-01-23T19:39:32.112Z,74.40
2023-01-23T19:41:59.957Z,70.80
2023-01-23T19:44:30.031Z,72.90
2023-01-23T19:46:57.786Z,69.30
2023-01-23T19:49:25.557Z,71.20
2023-01-23T19:51:53.368Z,75.90
2023-01-23T19:54:23.833Z,70.50
2023-01-23T19:56:52.219Z,70.20
2023-01-23T19:59:20.907Z,70.10
2023-01-23T20:01:51.001Z,75.80
2023-01-23T20:04:21.122Z,75.60
2023-01-23T20:06:51.485Z,76.50
2023-01-23T20:09:19.866Z,73.10
2023-01-23T20:11:47.713Z,81.90
2023-01-23T20:14:15.785Z,84.90
2023-01-23T20:16:43.817Z,75.20
2023-01-23T20:19:16.308Z,83.90
2023-01-23T20:21:45.515Z,84.20
2023-01-23T20:24:14.659Z,83.00
2023-01-23T20:26:42.460Z,78.50
2023-01-23T20:29:11.073Z,84.60
2023-01-23T20:31:39.022Z,78.10
2023-01-23T20:34:07.373Z,83.90
2023-01-23T20:36:35.341Z,81.10
2023-01-23T20:39:04.756Z,79.10
2023-01-23T20:41:32.470Z,87.10
2023-01-23T20:44:00.893Z,78.40
2023-01-23T20:46:28.588Z,81.70
2023-01-23T20:48:56.329Z,84.80
2023-01-23T20:51:24.192Z,86.10
2023-01-23T20:53:51.856Z,92.40
2023-01-23T20:56:27.313Z,94.60
2023-01-23T20:59:14.293Z,92.40
2023-01-23T21:02:01.273Z,88.60
2023-01-23T21:04:31.054Z,85.00
2023-01-23T21:06:59.820Z,90.30
2023-01-23T21:09:27.626Z,94.00
2023-01-23T21:11:55.429Z,97.40
2023-01-23T21:14:23.637Z,93.60
2023-01-23T21:16:51.739Z,92.10
2023-01-23T21:19:19.596Z,90.10
2023-01-23T21:21:47.392Z,95.40
2023-01-23T21:24:15.211Z,96.50
2023-01-23T21:26:43.815Z,91.80
2023-01-23T21:29:11.495Z,87.10
2023-01-23T21:31:39.610Z,89.50
2023-01-23T21:34:10.048Z,93.80
2023-01-23T21:36:38.495Z,94.20
2023-01-23T21:39:08.604Z,104.80
2023-01-23T21:41:37.119Z,94.30
2023-01-23T21:44:04.898Z,95.70
2023-01-23T21:46:32.690Z,98.40
2023-01-23T21:49:00.531Z,84.20
2023-01-23T21:51:28.349Z,90.00
2023-01-23T21:53:56.012Z,94.60
2023-01-23T21:56:24.550Z,89.10
2023-01-23T21:58:52.944Z,93.00
2023-01-23T22:01:32.494Z,93.20
2023-01-23T22:04:16.564Z,97.10
2023-01-23T22:06:45.249Z,94.50
2023-01-23T22:09:16.046Z,98.20
2023-01-23T22:11:44.930Z,94.50
2023-01-23T22:14:12.693Z,97.40
2023-01-23T22:16:49.776Z,94.40
2023-01-23T22:19:23.348Z,101.40
2023-01-23T22:21:55.522Z,97.20
2023-01-23T22:24:23.400Z,102.00
2023-01-23T22:26:51.495Z,103.80
2023-01-23T22:29:19.208Z,94.10
2023-01-23T22:31:46.937Z,96.80
2023-01-23T22:34:14.690Z,99.30
2023-01-23T22:36:42.377Z,102.20
2023-01-23T22:39:12.007Z,106.00
2023-01-23T22:41:39.647Z,101.60
2023-01-23T22:44:07.343Z,104.50
2023-01-23T22:46:35.063Z,102.70
2023-01-23T22:49:02.703Z,105.50
2023-01-23T22:51:30.805Z,101.60
2023-01-23T22:53:58.837Z,95.20
2023-01-23T22:56:27.366Z,94.50
2023-01-23T22:58:55.828Z,89.90
2023-01-23T23:01:24.310Z,96.20
2023-01-23T23:03:52.154Z,97.50
2023-01-23T23:06:20.085Z,99.70
2023-01-23T23:08:48.460Z,91.90
2023-01-23T23:11:21.855Z,98.40
2023-01-23T23:13:50.215Z,93.00
2023-01-23T23:16:23.745Z,88.90
2023-01-23T23:18:53.842Z,91.60
2023-01-23T23:21:24.477Z,89.10
2023-01-23T23:23:57.176Z,88.70
2023-01-23T23:26:26.671Z,90.20
2023-01-23T23:28:54.972Z,88.00
2023-01-23T23:31:22.840Z,90.50
2023-01-23T23:33:51.231Z,89.40
2023-01-23T23:36:18.975Z,85.80
2023-01-23T23:38:46.680Z,84.00
2023-01-23T23:41:15.662Z,85.90
2023-01-23T23:43:44.181Z,85.10
2023-01-23T23:46:13.095Z,89.00
2023-01-23T23:48:40.992Z,86.50
2023-01-23T23:51:11.561Z,83.10
2023-01-23T23:53:39.664Z,85.00
2023-01-23T23:56:07.998Z,91.60
2023-01-23T23:58:36.499Z,88.60
